Latest Weather Observations for Karratha

IDW60801

Issued at 3:35 pm WST Thursday 18 September 2014 (issued every 30 minutes, with the page automatically refreshed every 10 minutes)

About weather observations | Map of weather stations | Latest weather observations for WA | Other Formats
Station Details ID: 004083 Name: KARRATHA AERO Lat: -20.71 Lon: 116.77 Height: 5.3 m
Data from the previous 72 hours. | See also: Recent months at Karratha
Date/Time
WST
Temp
°C
App
Temp
°C
Dew
Point
Rel
Hum
%
Delta-T
°C
Wind Press
QNH
hPa
Press
MSL
hPa
Rain
since 9 am
mm
Dir
 
Spd
km/h
Gust
km/h
Spd
kts
Gust
kts
18/03:30pm 31.7 29.0 15.6 37 10.0 WNW 24 30 13 16 1013.1 1013.1 0.0
18/03:00pm 30.7 28.0 16.7 43 8.8 W 26 35 14 19 1013.3 1013.3 0.0
18/02:30pm 30.1 27.5 17.9 48 7.8 W 28 32 15 17 1013.3 1013.3 0.0
18/02:00pm 31.3 28.9 15.3 38 9.9 W 22 30 12 16 1013.6 1013.6 0.0
18/01:30pm 31.1 29.7 17.0 42 8.9 WNW 20 24 11 13 1014.1 1014.1 0.0
18/01:00pm 30.7 29.7 16.7 43 8.8 WNW 17 24 9 13 1014.6 1014.6 0.0
18/12:30pm 30.9 28.5 14.5 37 10.0 NW 20 26 11 14 1015.1 1015.1 0.0
18/12:00pm 30.2 29.3 16.9 44 8.4 WNW 17 20 9 11 1015.4 1015.4 0.0
18/11:30am 29.9 30.5 18.7 51 7.2 NW 13 19 7 10 1015.9 1015.9 0.0
18/11:00am 29.2 27.7 14.2 40 9.0 WNW 15 19 8 10 1016.2 1016.2 0.0
18/10:30am 28.5 28.5 15.1 44 8.2 W 9 15 5 8 1016.4 1016.4 0.0
18/10:00am 27.4 28.0 16.7 52 6.6 W 9 15 5 8 1016.7 1016.7 0.0
18/09:30am 26.8 27.4 17.8 57 5.7 W 11 15 6 8 1016.6 1016.6 0.0
18/09:00am 25.5 26.8 18.4 65 4.5 NW 9 13 5 7 1016.8 1016.8 0.0
18/08:30am 23.6 24.4 19.1 76 2.9 NW 13 17 7 9 1016.8 1016.8 0.0
18/08:00am 22.9 24.8 18.9 78 2.5 SW 7 15 4 8 1016.2 1016.2 0.0
18/07:30am 21.2 22.7 18.9 87 1.4 W 9 15 5 8 1015.8 1015.8 0.0
18/07:00am 19.2 20.1 18.5 96 0.4 WSW 11 15 6 8 1015.5 1015.5 0.0
18/06:30am 18.6 18.2 18.1 97 0.3 SW 17 20 9 11 1015.1 1015.1 0.0
18/06:00am 18.8 18.8 18.1 96 0.4 SW 15 17 8 9 1015.0 1015.0 0.0
18/05:30am 19.2 20.9 18.5 96 0.4 WNW 7 13 4 7 1014.9 1014.9 0.0
18/05:00am 19.1 19.3 18.6 97 0.3 WSW 15 17 8 9 1014.4 1014.4 0.0
18/04:30am 18.8 20.3 18.1 96 0.4 WSW 7 9 4 5 1014.3 1014.3 0.0
18/04:00am 19.3 19.8 18.3 94 0.6 SW 13 19 7 10 1013.9 1013.9 0.0
18/03:30am 20.7 19.6 19.5 93 0.8 WSW 24 28 13 15 1014.0 1014.0 0.0
18/03:00am 20.9 20.6 19.6 92 0.8 WSW 20 22 11 12 1014.2 1014.2 0.0
18/02:30am 21.3 21.7 19.8 91 1.0 W 17 22 9 12 1014.5 1014.5 0.0
18/02:00am 21.6 21.6 19.7 89 1.2 W 19 22 10 12 1014.4 1014.4 0.0
18/01:30am 21.3 21.0 19.6 90 1.1 WSW 20 24 11 13 1014.3 1014.3 0.0
18/01:00am 21.4 21.4 19.7 90 1.1 WSW 19 22 10 12 1014.6 1014.6 0.0
18/12:30am 21.8 21.3 19.9 89 1.2 WSW 22 28 12 15 1014.9 1014.9 0.0
18/12:00am 21.8 20.5 19.9 89 1.2 WSW 26 35 14 19 1015.0 1015.0 0.0
 
Date/Time
WST
Temp
°C
App
Temp
°C
Dew
Point
Rel
Hum
%
Delta-T
°C
Wind Press
QNH
hPa
Press
MSL
hPa
Rain
since 9 am
mm
Dir
 
Spd
km/h
Gust
km/h
Spd
kts
Gust
kts
17/11:30pm 22.1 20.5 20.0 88 1.3 W 28 35 15 19 1015.2 1015.2 0.0
17/11:00pm 22.6 21.0 20.1 86 1.6 W 28 35 15 19 1015.5 1015.5 0.0
17/10:30pm 22.7 21.9 20.0 85 1.7 W 24 32 13 17 1015.5 1015.5 0.0
17/10:00pm 23.0 21.7 19.8 82 2.1 W 26 30 14 16 1015.5 1015.5 0.0
17/09:30pm 23.3 21.6 19.7 80 2.3 W 28 35 15 19 1015.6 1015.6 0.0
17/09:00pm 23.8 22.8 20.5 82 2.1 W 26 32 14 17 1015.1 1015.1 0.0
17/08:30pm 24.4 24.0 20.9 81 2.3 W 24 28 13 15 1014.8 1014.8 0.0
17/08:00pm 24.5 24.8 20.8 80 2.4 W 20 28 11 15 1014.4 1014.4 0.0
17/07:30pm 24.8 25.2 20.9 79 2.6 W 20 26 11 14 1013.9 1013.9 0.0
17/07:00pm 25.0 25.3 20.7 77 2.8 W 20 28 11 15 1013.4 1013.4 0.0
17/06:30pm 25.7 25.2 20.7 74 3.3 W 24 30 13 16 1013.0 1013.0 0.0
17/06:00pm 25.8 24.9 20.6 73 3.4 W 26 30 14 16 1012.8 1012.8 0.0
17/05:30pm 27.2 25.6 19.3 62 5.1 W 26 32 14 17 1012.5 1012.5 0.0
17/05:00pm 28.0 26.4 19.2 58 5.7 W 26 32 14 17 1012.2 1012.2 0.0
17/04:30pm 28.8 26.3 18.0 52 6.9 W 28 33 15 18 1012.1 1012.1 0.0
17/04:00pm 29.6 26.8 18.1 50 7.4 W 30 35 16 19 1011.9 1011.9 0.0
17/03:30pm 29.8 26.9 17.9 48 7.6 W 30 35 16 19 1011.8 1011.8 0.0
17/03:00pm 30.3 27.4 17.0 44 8.4 W 28 35 15 19 1012.0 1012.0 0.0
17/02:30pm 30.6 27.3 17.0 44 8.6 W 30 35 16 19 1011.9 1011.9 0.0
17/02:00pm 30.0 27.5 18.8 51 7.2 W 30 35 16 19 1012.0 1012.0 0.0
17/01:30pm 30.6 27.2 17.7 46 8.2 W 32 35 17 19 1012.2 1012.2 0.0
17/01:00pm 31.3 28.7 17.9 44 8.6 W 28 35 15 19 1012.5 1012.5 0.0
17/12:30pm 30.7 28.2 18.1 47 8.1 W 28 35 15 19 1012.8 1012.8 0.0
17/12:00pm 29.7 27.1 16.8 45 8.1 W 26 33 14 18 1013.0 1013.0 0.0
17/11:30am 29.7 27.2 17.2 47 7.9 W 26 32 14 17 1013.5 1013.5 0.0
17/11:00am 29.9 28.7 17.0 45 8.1 W 19 24 10 13 1013.9 1013.9 0.0
17/10:30am 29.2 28.0 16.0 44 8.2 W 17 24 9 13 1014.2 1014.2 0.0
17/10:00am 27.9 26.1 15.9 48 7.4 W 20 28 11 15 1014.3 1014.3 0.0
17/09:30am 26.1 24.4 18.0 61 5.1 W 24 30 13 16 1014.3 1014.3 0.0
17/09:00am 24.6 23.8 18.5 69 3.9 W 20 24 11 13 1014.3 1014.3 0.0
17/08:30am 23.4 23.6 18.5 74 3.1 WSW 15 17 8 9 1014.3 1014.3 0.0
17/08:00am 22.6 22.6 18.2 76 2.8 WSW 15 20 8 11 1014.1 1014.1 0.0
17/07:30am 22.0 22.2 18.6 81 2.1 WSW 15 19 8 10 1013.8 1013.8 0.0
17/07:00am 20.6 21.2 18.5 88 1.3 SW 13 17 7 9 1013.4 1013.4 0.0
17/06:30am 19.9 20.5 18.6 92 0.8 SW 13 17 7 9 1013.0 1013.0 0.0
17/06:00am 19.9 19.7 18.6 92 0.8 WSW 17 19 9 10 1012.6 1012.6 0.0
17/05:30am 19.8 20.4 18.6 93 0.7 WSW 13 20 7 11 1012.1 1012.1 0.0
17/05:00am 20.0 19.4 18.8 93 0.8 WSW 20 24 11 13 1011.8 1011.8 0.0
17/04:30am 20.6 20.8 19.3 92 0.8 SW 17 20 9 11 1012.0 1012.0 0.0
17/04:00am 21.2 20.6 19.8 92 0.9 WSW 22 28 12 15 1011.6 1011.6 0.0
17/03:30am 21.1 20.9 19.7 92 0.9 WSW 20 24 11 13 1011.6 1011.6 0.0
17/03:00am 21.1 20.9 19.7 92 0.9 WSW 20 24 11 13 1011.8 1011.8 0.0
17/02:30am 21.2 21.0 19.7 91 1.0 WSW 20 28 11 15 1011.9 1011.9 0.0
17/02:00am 21.4 21.3 19.9 91 1.0 WSW 20 24 11 13 1012.0 1012.0 0.0
17/01:30am 21.6 20.7 19.9 90 1.1 WSW 24 30 13 16 1012.0 1012.0 0.0
17/01:00am 21.7 21.6 20.0 90 1.1 WSW 20 26 11 14 1012.4 1012.4 0.0
17/12:30am 21.9 21.1 20.0 89 1.2 WSW 24 32 13 17 1012.4 1012.4 0.0
17/12:00am 21.9 21.7 19.8 88 1.3 WSW 20 26 11 14 1012.7 1012.7 0.0
 
Date/Time
WST
Temp
°C
App
Temp
°C
Dew
Point
Rel
Hum
%
Delta-T
°C
Wind Press
QNH
hPa
Press
MSL
hPa
Rain
since 9 am
mm
Dir
 
Spd
km/h
Gust
km/h
Spd
kts
Gust
kts
16/11:30pm 22.1 21.2 19.8 87 1.5 WSW 24 30 13 16 1012.5 1012.5 0.0
16/11:00pm 22.3 21.0 19.8 86 1.6 W 26 32 14 17 1012.6 1012.6 0.0
16/10:30pm 22.5 21.8 20.2 87 1.5 WSW 24 30 13 16 1012.5 1012.5 0.0
16/10:00pm 22.9 21.5 20.4 86 1.6 W 28 32 15 17 1012.6 1012.6 0.0
16/09:30pm 23.4 22.7 20.3 83 2.0 WSW 24 32 13 17 1012.6 1012.6 0.0
16/09:00pm 23.9 22.2 19.8 78 2.6 W 28 32 15 17 1012.5 1012.5 0.0
16/08:30pm 24.5 22.5 18.4 69 3.9 W 26 33 14 18 1012.3 1012.3 0.0
16/08:00pm 25.0 22.8 17.0 61 5.0 W 24 30 13 16 1011.8 1011.8 0.0
16/07:30pm 25.5 22.4 15.5 54 6.1 W 26 32 14 17 1011.6 1011.6 0.0
16/07:00pm 25.9 22.7 15.3 52 6.4 W 26 32 14 17 1011.0 1011.0 0.0
16/06:30pm 26.2 22.2 15.3 51 6.6 W 30 37 16 20 1010.5 1010.5 0.0
16/06:00pm 26.7 21.8 13.8 45 7.6 W 32 35 17 19 1010.3 1010.3 0.0
16/05:30pm 27.8 22.7 13.0 40 8.7 W 32 39 17 21 1010.1 1010.1 0.0
16/05:00pm 28.4 23.4 13.5 40 8.9 W 32 39 17 21 1009.9 1009.9 0.0
16/04:30pm 28.9 23.3 13.2 38 9.3 W 35 43 19 23 1009.8 1009.8 0.0
16/04:00pm 29.9 24.1 14.0 37 9.6 W 37 44 20 24 1009.7 1009.7 0.0
16/03:30pm 30.6 24.9 13.0 34 10.5 W 35 44 19 24 1009.5 1009.5 0.0
16/03:00pm 31.1 24.9 12.5 32 11.0 W 37 46 20 25 1009.5 1009.5 0.0
16/02:30pm 31.0 25.0 13.3 34 10.6 W 37 44 20 24 1009.7 1009.7 0.0
16/02:00pm 31.7 26.5 14.4 35 10.6 W 35 43 19 23 1009.8 1009.8 0.0
16/01:30pm 31.9 27.8 15.0 36 10.4 W 30 35 16 19 1010.0 1010.0 0.0
16/01:00pm 32.2 28.6 15.2 35 10.5 W 28 33 15 18 1010.4 1010.4 0.0
16/12:30pm 32.6 27.1 10.6 26 12.7 W 30 35 16 19 1010.8 1010.8 0.0
16/12:00pm 32.2 27.0 10.3 26 12.6 W 28 35 15 19 1011.3 1011.3 0.0
16/11:30am 31.5 27.0 11.3 29 11.7 W 26 33 14 18 1011.7 1011.7 0.0
16/11:00am 31.3 27.7 11.7 30 11.5 W 22 30 12 16 1011.9 1011.9 0.0
16/10:30am 29.7 26.2 10.8 31 10.8 W 20 26 11 14 1012.1 1012.1 0.0
16/10:00am 28.4 25.8 11.9 36 9.5 W 17 20 9 11 1012.5 1012.5 0.0
16/09:30am 27.5 24.0 8.9 31 10.2 W 17 20 9 11 1012.7 1012.7 0.0
16/09:00am 25.8 23.2 9.2 35 9.1 W 13 17 7 9 1013.0 1013.0 0.0
16/08:30am 24.4 21.5 11.0 43 7.5 W 17 20 9 11 1012.9 1012.9 0.0
16/08:00am 23.6 20.4 9.9 42 7.5 WSW 17 22 9 12 1012.7 1012.7 0.0
16/07:30am 22.0 19.2 11.4 51 5.9 WSW 17 22 9 12 1012.6 1012.6 0.0
16/07:00am 21.3 19.1 10.8 51 5.8 WSW 13 17 7 9 1012.3 1012.3 0.0
16/06:30am 19.7 17.2 10.9 57 4.8 W 15 19 8 10 1012.0 1012.0 0.0
16/06:00am 19.4 16.6 9.9 54 5.1 WSW 15 17 8 9 1011.7 1011.7 0.0
16/05:30am 19.6 16.7 9.8 53 5.2 WSW 15 17 8 9 1011.4 1011.4 0.0
16/05:00am 19.8 17.5 10.5 55 5.0 WSW 13 13 7 7 1011.2 1011.2 0.0
16/04:30am 20.8 19.0 10.9 53 5.4 WSW 11 13 6 7 1011.1 1011.1 0.0
16/04:00am 21.2 19.0 10.7 51 5.7 WSW 13 13 7 7 1010.8 1010.8 0.0
16/03:30am 21.6 19.2 10.1 48 6.2 WSW 13 15 7 8 1010.8 1010.8 0.0
16/03:00am 21.6 18.7 9.8 47 6.4 WSW 15 17 8 9 1010.7 1010.7 0.0
16/02:30am 22.4 19.1 9.6 44 6.9 WSW 17 19 9 10 1010.7 1010.7 0.0
16/02:00am 23.6 20.3 11.0 45 7.0 WSW 19 24 10 13 1010.9 1010.9 0.0
16/01:30am 23.6 20.5 11.6 47 6.8 WSW 19 20 10 11 1011.2 1011.2 0.0
16/01:00am 23.9 21.4 12.2 48 6.7 WSW 17 20 9 11 1011.6 1011.6 0.0
16/12:30am 24.0 21.6 12.6 49 6.5 WSW 17 19 9 10 1011.7 1011.7 0.0
16/12:00am 24.4 22.1 13.0 49 6.6 WSW 17 17 9 9 1012.1 1012.1 0.0
 
Date/Time
WST
Temp
°C
App
Temp
°C
Dew
Point
Rel
Hum
%
Delta-T
°C
Wind Press
QNH
hPa
Press
MSL
hPa
Rain
since 9 am
mm
Dir
 
Spd
km/h
Gust
km/h
Spd
kts
Gust
kts
15/11:30pm 24.9 22.5 12.5 46 7.1 WSW 17 20 9 11 1012.2 1012.2 0.0
15/11:00pm 25.5 23.0 12.4 44 7.5 W 17 20 9 11 1012.3 1012.3 0.0
15/10:30pm 25.8 23.3 12.3 43 7.8 WSW 17 20 9 11 1012.5 1012.5 0.0
15/10:00pm 26.3 23.3 12.0 41 8.2 W 19 22 10 12 1012.5 1012.5 0.0
15/09:30pm 26.1 23.2 11.1 39 8.5 WSW 17 20 9 11 1012.6 1012.6 0.0
15/09:00pm 26.1 23.9 13.2 44 7.5 W 17 19 9 10 1012.6 1012.6 0.0
15/08:30pm 26.1 25.0 15.2 51 6.6 W 15 17 8 9 1012.5 1012.5 0.0
15/08:00pm 26.7 24.4 14.1 46 7.5 W 19 22 10 12 1012.2 1012.2 0.0
15/07:30pm 27.3 24.8 13.6 43 8.1 WSW 19 22 10 12 1011.9 1011.9 0.0
15/07:00pm 27.7 24.9 14.3 43 8.0 W 22 26 12 14 1011.7 1011.7 0.0
15/06:30pm 28.1 24.8 14.0 42 8.4 W 24 30 13 16 1011.2 1011.2 0.0
15/06:00pm 28.6 24.3 13.3 39 9.1 W 28 32 15 17 1010.7 1010.7 0.0
15/05:30pm 29.6 24.7 13.8 38 9.5 W 32 39 17 21 1010.3 1010.3 0.0
15/05:00pm 30.5 25.2 12.4 33 10.7 W 32 43 17 23 1010.2 1010.2 0.0
15/04:30pm 30.7 26.6 14.8 38 9.7 W 30 37 16 20 1010.1 1010.1 0.0
15/04:00pm 31.3 26.7 13.6 34 10.7 W 30 37 16 20 1010.1 1010.1 0.0

Other Formats:

Comma delimited format used in spreadsheet applications
http://www.bom.gov.au/fwo/IDW60801/IDW60801.95307.axf

JavaScript Object Notation format (JSON) in row-major order
http://www.bom.gov.au/fwo/IDW60801/IDW60801.95307.json